Time;durP1;ratioP1;P1;durP2;ratioP2;P2;SDS_P1;SDS_P2;PMS_P1;PMS_P2;Temp;Humidity;BMP_temperature;BMP_pressure;BME280_temperature;BME280_humidity;BME280_pressure;Samples;Min_cycle;Max_cycle;Signal;HPM_P1;HPM_P2
2022/10/16 00:01:10;;;;;;;30.50;16.80;;;;;;;12.89;84.19;100561.25;107212;1252;97990;-69
2022/10/16 00:03:37;;;;;;;34.80;18.90;;;;;;;12.87;84.21;100558.35;107122;1253;139123;-68
2022/10/16 00:06:03;;;;;;;27.80;15.80;;;;;;;12.85;84.32;100555.75;107226;1253;97778;-69
2022/10/16 00:08:29;;;;;;;28.50;16.10;;;;;;;12.85;84.25;100551.44;107036;1238;139082;-69
2022/10/16 00:11:00;;;;;;;24.30;15.50;;;;;;;12.84;84.23;100542.89;107442;1251;97702;-70
2022/10/16 00:13:25;;;;;;;24.20;14.70;;;;;;;12.84;84.32;100535.73;107314;1251;111094;-69
2022/10/16 00:15:50;;;;;;;27.00;15.80;;;;;;;12.84;84.28;100531.61;107274;1230;139154;-69
2022/10/16 00:18:17;;;;;;;29.30;15.90;;;;;;;12.86;84.40;100535.27;107388;1252;97685;-69
2022/10/16 00:20:42;;;;;;;28.00;17.30;;;;;;;12.87;84.49;100532.16;107208;1246;138879;-69
2022/10/16 00:23:08;;;;;;;27.90;16.70;;;;;;;12.87;84.40;100536.05;107338;1251;97646;-69
2022/10/16 00:25:33;;;;;;;25.90;14.30;;;;;;;12.88;84.48;100533.33;107384;1243;97627;-69
2022/10/16 00:28:00;;;;;;;24.70;15.10;;;;;;;12.89;84.42;100540.63;107124;1246;138805;-68
2022/10/16 00:30:27;;;;;;;24.90;14.70;;;;;;;12.90;84.55;100543.08;107227;1252;97614;-68
2022/10/16 00:32:52;;;;;;;26.70;15.20;;;;;;;12.93;84.58;100547.60;107174;1251;139146;-69
2022/10/16 00:35:17;;;;;;;23.40;14.40;;;;;;;12.95;84.57;100555.05;107408;1245;97733;-69
2022/10/16 00:37:43;;;;;;;25.60;14.20;;;;;;;12.96;84.69;100558.35;107228;1259;138921;-69
2022/10/16 00:40:09;;;;;;;23.00;14.20;;;;;;;12.97;84.66;100561.35;107300;1245;97619;-69
2022/10/16 00:42:34;;;;;;;28.80;16.00;;;;;;;13.00;84.77;100563.19;107207;1236;97689;-70
2022/10/16 00:45:04;;;;;;;23.10;13.70;;;;;;;13.03;84.72;100561.20;107087;1254;138752;-70
2022/10/16 00:47:47;;;;;;;21.50;12.70;;;;;;;13.06;84.80;100556.55;107358;1250;97737;-69
2022/10/16 00:50:22;;;;;;;26.30;14.80;;;;;;;13.08;84.78;100554.46;107201;1244;139630;-69
2022/10/16 00:52:50;;;;;;;23.60;13.40;;;;;;;13.10;84.82;100550.55;107209;1247;111359;-69
2022/10/16 00:55:16;;;;;;;24.80;13.20;;;;;;;13.12;84.91;100550.27;107181;1245;97663;-70
2022/10/16 00:57:43;;;;;;;24.40;13.50;;;;;;;13.14;84.90;100552.29;107205;1251;138747;-69
2022/10/16 01:00:11;;;;;;;24.70;14.20;;;;;;;13.16;84.85;100557.06;107322;1251;97602;-70
2022/10/16 01:02:36;;;;;;;19.60;13.20;;;;;;;13.19;84.90;100552.62;107232;1244;138795;-70
2022/10/16 01:05:03;;;;;;;25.50;12.70;;;;;;;13.21;84.98;100551.58;107439;1243;97917;-70
2022/10/16 01:07:53;;;;;;;25.40;13.70;;;;;;;13.24;84.99;100556.08;107329;1254;108481;-68
2022/10/16 01:10:44;;;;;;;23.70;12.80;;;;;;;13.26;84.91;100554.20;107323;1251;97624;-70
2022/10/16 01:13:17;;;;;;;24.90;13.50;;;;;;;13.28;85.03;100557.83;107386;1259;97901;-69
2022/10/16 01:16:00;;;;;;;23.30;12.70;;;;;;;13.31;85.08;100557.31;107221;1252;138953;-69
2022/10/16 01:18:57;;;;;;;23.30;12.10;;;;;;;13.33;85.02;100564.37;107307;1254;99353;-69
2022/10/16 01:21:24;;;;;;;20.50;13.30;;;;;;;13.35;84.95;100565.92;107128;1245;138549;-69
2022/10/16 01:24:08;;;;;;;18.90;12.00;;;;;;;13.36;84.97;100558.52;107240;1253;98443;-69
2022/10/16 01:27:18;;;;;;;19.30;12.10;;;;;;;13.35;84.92;100557.80;107219;1253;138791;-68
2022/10/16 01:29:54;;;;;;;19.00;12.80;;;;;;;13.37;85.04;100555.21;107328;1246;109720;-68
2022/10/16 01:32:33;;;;;;;20.40;12.30;;;;;;;13.39;85.12;100558.48;107241;1251;139018;-68
2022/10/16 01:35:03;;;;;;;22.80;13.00;;;;;;;13.42;85.02;100556.34;107359;1251;107246;-69
2022/10/16 01:37:38;;;;;;;22.40;12.80;;;;;;;13.43;85.02;100557.91;107341;1244;97635;-69
2022/10/16 01:40:09;;;;;;;21.20;12.90;;;;;;;13.45;85.18;100559.77;107298;1257;139805;-68
2022/10/16 01:42:39;;;;;;;18.80;12.10;;;;;;;13.46;85.12;100560.60;107322;1254;111096;-70
2022/10/16 01:45:07;;;;;;;17.10;11.50;;;;;;;13.48;85.13;100557.65;107170;1244;138651;-70
2022/10/16 01:47:35;;;;;;;19.30;12.20;;;;;;;13.48;85.02;100567.14;107213;1247;107457;-70
2022/10/16 01:50:04;;;;;;;18.50;12.10;;;;;;;13.50;85.14;100571.17;107146;1254;140195;-69
2022/10/16 01:52:34;;;;;;;23.60;12.10;;;;;;;13.52;85.12;100571.42;107332;1244;97659;-69
2022/10/16 01:55:03;;;;;;;20.80;12.20;;;;;;;13.53;85.11;100576.55;107371;1243;110901;-69
2022/10/16 01:57:30;;;;;;;18.50;11.70;;;;;;;13.55;85.19;100576.26;107215;1251;139174;-69
2022/10/16 02:00:00;;;;;;;21.60;11.80;;;;;;;13.56;85.18;100577.25;107311;1244;97884;-70
2022/10/16 02:02:30;;;;;;;20.80;12.60;;;;;;;13.58;85.18;100573.01;107150;1243;138698;-70
2022/10/16 02:05:01;;;;;;;21.20;12.00;;;;;;;13.59;85.13;100574.02;107306;1253;97636;-69
2022/10/16 02:07:26;;;;;;;17.50;11.50;;;;;;;13.61;85.27;100568.92;107282;1254;111047;-69
2022/10/16 02:09:51;;;;;;;22.70;12.70;;;;;;;13.62;85.29;100565.59;107209;1250;139329;-68
2022/10/16 02:12:59;;;;;;;18.10;11.60;;;;;;;13.65;85.25;100564.52;107335;1238;97729;-69
2022/10/16 02:15:24;;;;;;;20.50;12.60;;;;;;;13.66;85.14;100568.59;107007;1245;138929;-68
2022/10/16 02:17:49;;;;;;;20.70;12.60;;;;;;;13.69;85.16;100573.67;107198;1249;97619;-68
2022/10/16 02:20:15;;;;;;;18.20;11.90;;;;;;;13.71;85.23;100578.54;107148;1253;139750;-68
2022/10/16 02:22:46;;;;;;;19.10;11.70;;;;;;;13.74;85.18;100583.96;107311;1237;97662;-69
2022/10/16 02:25:29;;;;;;;16.80;11.80;;;;;;;13.76;85.14;100582.98;107297;1244;97815;-70
2022/10/16 02:28:02;;;;;;;17.50;11.60;;;;;;;13.78;85.24;100584.10;107209;1251;138937;-70
2022/10/16 02:30:37;;;;;;;18.30;12.10;;;;;;;13.80;85.28;100575.52;107301;1244;100270;-69
2022/10/16 02:33:05;;;;;;;17.30;10.90;;;;;;;13.80;85.24;100573.91;107125;1251;139863;-69
2022/10/16 02:35:31;;;;;;;19.60;11.50;;;;;;;13.80;85.25;100570.13;107188;1253;97642;-69
2022/10/16 02:37:57;;;;;;;19.60;12.60;;;;;;;13.82;85.24;100571.30;107112;1238;139229;-69
2022/10/16 02:40:23;;;;;;;20.50;12.50;;;;;;;13.83;85.25;100571.05;107165;1245;97270;-69
2022/10/16 02:42:54;;;;;;;19.20;11.80;;;;;;;13.83;85.15;100575.85;107259;1252;97729;-69
2022/10/16 02:45:20;;;;;;;22.30;11.60;;;;;;;13.84;85.18;100576.90;107035;1252;139281;-69
2022/10/16 02:47:45;;;;;;;21.00;13.20;;;;;;;13.84;85.20;100576.71;107271;1254;97796;-69
2022/10/16 02:50:10;;;;;;;19.00;12.40;;;;;;;13.87;85.40;100576.73;107223;1238;138944;-69
2022/10/16 02:52:35;;;;;;;18.90;12.40;;;;;;;13.89;85.38;100572.30;107312;1244;97607;-69
2022/10/16 02:55:01;;;;;;;18.00;11.80;;;;;;;13.90;85.23;100571.33;107354;1254;97713;-69
2022/10/16 02:57:26;;;;;;;19.30;13.00;;;;;;;13.90;85.28;100574.22;107209;1251;139652;-69
2022/10/16 02:59:51;;;;;;;18.30;12.70;;;;;;;13.91;85.34;100575.42;107342;1251;97677;-70
2022/10/16 03:02:16;;;;;;;21.00;13.20;;;;;;;13.91;85.23;100580.45;107233;1231;139721;-69
2022/10/16 03:04:42;;;;;;;19.80;12.10;;;;;;;13.91;85.24;100579.91;107309;1260;97483;-69
2022/10/16 03:07:07;;;;;;;19.50;12.20;;;;;;;13.90;85.29;100577.97;107363;1244;97734;-69
2022/10/16 03:09:32;;;;;;;19.40;13.10;;;;;;;13.90;85.24;100587.11;107236;1257;138978;-69
2022/10/16 03:11:58;;;;;;;20.00;12.70;;;;;;;13.91;85.34;100584.07;107307;1238;97760;-69
2022/10/16 03:14:24;;;;;;;24.90;14.10;;;;;;;13.91;85.36;100588.54;107292;1254;138799;-69
2022/10/16 03:16:49;;;;;;;22.30;13.80;;;;;;;13.92;85.31;100582.71;107313;1247;97769;-69
2022/10/16 03:19:16;;;;;;;23.90;15.30;;;;;;;13.92;85.33;100583.46;107359;1250;97628;-69
2022/10/16 03:21:41;;;;;;;22.70;13.90;;;;;;;13.92;85.35;100581.64;107269;1257;139129;-69
2022/10/16 03:24:06;;;;;;;25.00;13.20;;;;;;;13.90;85.28;100574.71;107350;1251;97618;-69
2022/10/16 03:26:32;;;;;;;24.30;13.90;;;;;;;13.89;85.28;100579.84;107292;1230;139103;-69
2022/10/16 03:28:57;;;;;;;20.20;13.40;;;;;;;13.88;85.41;100576.86;107282;1244;97712;-69
2022/10/16 03:31:22;;;;;;;21.10;13.40;;;;;;;13.86;85.45;100581.61;107406;1251;97756;-69
2022/10/16 03:33:47;;;;;;;22.80;13.00;;;;;;;13.87;85.47;100588.59;107126;1255;138621;-69
2022/10/16 03:36:12;;;;;;;22.20;13.50;;;;;;;13.86;85.46;100586.83;107296;1261;97632;-69
2022/10/16 03:38:37;;;;;;;17.60;12.30;;;;;;;13.85;85.34;100593.55;107160;1254;139233;-69
2022/10/16 03:41:04;;;;;;;26.90;14.60;;;;;;;13.83;85.37;100601.22;107375;1235;97601;-69
2022/10/16 03:43:29;;;;;;;21.30;13.10;;;;;;;13.82;85.52;100596.23;107424;1245;97618;-69
2022/10/16 03:45:54;;;;;;;22.10;13.70;;;;;;;13.83;85.59;100598.00;107216;1238;139106;-69
2022/10/16 03:48:20;;;;;;;21.50;13.30;;;;;;;13.84;85.67;100597.03;107410;1244;97612;-69
2022/10/16 03:50:47;;;;;;;23.60;14.00;;;;;;;13.85;85.55;100601.80;107203;1235;138762;-69
2022/10/16 03:53:13;;;;;;;24.80;14.80;;;;;;;13.86;85.55;100609.31;107179;1246;107369;-69
2022/10/16 03:55:38;;;;;;;23.80;13.10;;;;;;;13.86;85.63;100608.96;107163;1252;97752;-69
2022/10/16 03:58:03;;;;;;;22.10;12.60;;;;;;;13.88;85.74;100613.13;107160;1253;138332;-69
2022/10/16 04:00:28;;;;;;;24.30;14.90;;;;;;;13.90;85.80;100614.83;107192;1252;96510;-69
2022/10/16 04:02:53;;;;;;;25.50;14.40;;;;;;;13.91;85.75;100615.64;107185;1233;141709;-69
2022/10/16 04:05:19;;;;;;;20.10;12.30;;;;;;;13.93;85.72;100620.21;107316;1241;97541;-69
2022/10/16 04:07:45;;;;;;;25.20;14.50;;;;;;;13.94;85.71;100619.60;107282;1244;139331;-70
2022/10/16 04:10:10;;;;;;;20.30;14.10;;;;;;;13.95;85.76;100623.66;107293;1254;107465;-69
2022/10/16 04:12:36;;;;;;;24.70;14.30;;;;;;;13.97;85.86;100625.38;107278;1254;97730;-69
2022/10/16 04:15:02;;;;;;;22.30;13.30;;;;;;;13.99;85.83;100624.38;107260;1251;139297;-72
2022/10/16 04:17:27;;;;;;;23.50;14.00;;;;;;;14.00;85.96;100624.84;107302;1244;97693;-69
2022/10/16 04:19:52;;;;;;;23.50;14.00;;;;;;;14.03;85.91;100621.99;107195;1251;140519;-69
2022/10/16 04:22:18;;;;;;;19.80;13.20;;;;;;;14.03;85.84;100626.66;107276;1252;97615;-69
2022/10/16 04:24:43;;;;;;;21.50;13.40;;;;;;;14.04;85.94;100629.48;107255;1251;98110;-69
2022/10/16 04:27:08;;;;;;;21.00;13.90;;;;;;;14.04;86.01;100633.06;107137;1253;140747;-69
2022/10/16 04:29:33;;;;;;;23.20;13.50;;;;;;;14.05;86.07;100637.88;107192;1245;97662;-69
2022/10/16 04:31:58;;;;;;;20.20;13.00;;;;;;;14.06;85.99;100641.95;107209;1245;139340;-69
2022/10/16 04:34:24;;;;;;;27.00;13.90;;;;;;;14.07;85.99;100645.66;107286;1251;97631;-69
2022/10/16 04:36:49;;;;;;;25.30;15.50;;;;;;;14.06;86.14;100645.52;107372;1243;97606;-70
2022/10/16 04:39:15;;;;;;;23.90;14.80;;;;;;;14.06;86.06;100648.23;107218;1244;138691;-69
2022/10/16 04:41:40;;;;;;;20.90;13.20;;;;;;;14.05;86.02;100650.45;107356;1258;97702;-69
2022/10/16 04:44:05;;;;;;;20.90;14.60;;;;;;;14.03;86.04;100653.08;107250;1238;138928;-69
2022/10/16 04:46:30;;;;;;;25.40;13.80;;;;;;;14.04;86.31;100658.41;107329;1248;97727;-69
2022/10/16 04:48:56;;;;;;;26.60;15.30;;;;;;;14.05;86.23;100657.46;107449;1257;97627;-69
2022/10/16 04:51:21;;;;;;;24.60;14.50;;;;;;;14.05;86.26;100655.29;107266;1250;139361;-69
2022/10/16 04:53:46;;;;;;;22.70;14.90;;;;;;;14.04;86.17;100654.81;107375;1251;99309;-69
2022/10/16 04:56:11;;;;;;;25.70;14.70;;;;;;;14.04;86.30;100653.92;107283;1235;139604;-69
2022/10/16 04:58:36;;;;;;;22.00;14.10;;;;;;;14.06;86.32;100659.56;107340;1251;98105;-69
2022/10/16 05:01:02;;;;;;;22.60;14.30;;;;;;;14.06;86.36;100662.80;107430;1235;98076;-69
2022/10/16 05:03:27;;;;;;;24.80;14.40;;;;;;;14.06;86.49;100661.18;107103;1251;138912;-69
2022/10/16 05:05:52;;;;;;;27.30;16.20;;;;;;;14.06;86.48;100662.39;107297;1254;97645;-69
2022/10/16 05:08:17;;;;;;;19.60;14.70;;;;;;;14.07;86.55;100655.31;107175;1255;139332;-69
2022/10/16 05:10:44;;;;;;;23.40;15.10;;;;;;;14.09;86.60;100652.91;107410;1247;97673;-69
2022/10/16 05:13:10;;;;;;;24.60;14.10;;;;;;;14.10;86.58;100647.82;107345;1251;97684;-68
2022/10/16 05:15:35;;;;;;;21.60;13.90;;;;;;;14.10;86.54;100647.82;107205;1249;139869;-68
2022/10/16 05:18:00;;;;;;;22.60;14.20;;;;;;;14.09;86.64;100654.50;107339;1241;97672;-68
2022/10/16 05:20:26;;;;;;;22.10;14.90;;;;;;;14.09;86.70;100664.92;107154;1244;139032;-69
2022/10/16 05:22:51;;;;;;;23.50;14.90;;;;;;;14.08;86.64;100668.60;107165;1237;97768;-69
2022/10/16 05:25:18;;;;;;;23.90;15.60;;;;;;;14.06;86.69;100675.52;107261;1253;97718;-68
2022/10/16 05:27:47;;;;;;;20.80;13.30;;;;;;;14.04;86.63;100681.71;107226;1253;138475;-69
2022/10/16 05:30:12;;;;;;;22.10;14.80;;;;;;;14.04;86.68;100680.88;107379;1257;101525;-69
2022/10/16 05:32:37;;;;;;;21.20;13.90;;;;;;;14.04;86.74;100676.36;107231;1245;138890;-69
2022/10/16 05:35:03;;;;;;;24.60;13.30;;;;;;;14.06;86.86;100667.46;107433;1240;97726;-69
2022/10/16 05:37:28;;;;;;;24.20;14.40;;;;;;;14.07;86.81;100666.29;107309;1254;98141;-69
2022/10/16 05:39:53;;;;;;;23.40;13.40;;;;;;;14.10;86.90;100668.33;107254;1254;139914;-69
2022/10/16 05:42:18;;;;;;;23.40;14.30;;;;;;;14.10;86.94;100669.37;107303;1251;97596;-69
2022/10/16 05:44:44;;;;;;;21.80;13.80;;;;;;;14.11;86.96;100672.55;107262;1249;140546;-69
2022/10/16 05:47:10;;;;;;;22.00;14.50;;;;;;;14.12;87.01;100673.03;107278;1257;97588;-69
2022/10/16 05:49:35;;;;;;;30.60;16.30;;;;;;;14.13;87.04;100676.02;107359;1257;97688;-69
2022/10/16 05:52:01;;;;;;;24.50;14.00;;;;;;;14.14;87.09;100678.65;107302;1257;139198;-69
2022/10/16 05:54:26;;;;;;;33.50;15.10;;;;;;;14.15;87.08;100680.58;107285;1245;97741;-69
2022/10/16 05:56:51;;;;;;;22.20;14.60;;;;;;;14.14;87.17;100678.64;107262;1248;140171;-69
2022/10/16 05:59:16;;;;;;;24.70;15.60;;;;;;;14.15;87.14;100672.66;107337;1241;110730;-69
2022/10/16 06:01:42;;;;;;;23.80;14.30;;;;;;;14.16;87.21;100676.20;107182;1254;139554;-69
2022/10/16 06:04:08;;;;;;;21.50;14.70;;;;;;;14.15;87.26;100686.15;107383;1251;97623;-69
2022/10/16 06:06:33;;;;;;;22.50;14.30;;;;;;;14.16;87.26;100691.10;107403;1251;96479;-69
2022/10/16 06:08:59;;;;;;;21.00;14.00;;;;;;;14.17;87.29;100692.13;107240;1257;139199;-69
2022/10/16 06:11:28;;;;;;;21.00;13.40;;;;;;;14.17;87.25;100689.98;107356;1255;97601;-70
2022/10/16 06:13:59;;;;;;;24.10;14.50;;;;;;;14.18;87.34;100687.77;107201;1250;140222;-69
2022/10/16 06:16:26;;;;;;;22.70;14.10;;;;;;;14.17;87.22;100690.35;107314;1257;98101;-70
2022/10/16 06:18:55;;;;;;;23.10;13.90;;;;;;;14.18;87.44;100697.98;107349;1251;97609;-70
2022/10/16 06:21:24;;;;;;;25.10;14.80;;;;;;;14.19;87.36;100693.83;107129;1254;139798;-69
2022/10/16 06:23:50;;;;;;;21.10;14.20;;;;;;;14.17;87.40;100701.30;107195;1256;107481;-70
2022/10/16 06:26:18;;;;;;;22.00;14.00;;;;;;;14.17;87.36;100698.08;107063;1251;139670;-68
2022/10/16 06:28:44;;;;;;;21.60;14.50;;;;;;;14.16;87.42;100700.27;107328;1250;97622;-69
2022/10/16 06:31:11;;;;;;;30.40;15.80;;;;;;;14.17;87.49;100706.00;107440;1250;98154;-69
2022/10/16 06:33:37;;;;;;;21.00;13.60;;;;;;;14.16;87.43;100702.99;107062;1245;140321;-69
2022/10/16 06:36:11;;;;;;;25.10;14.70;;;;;;;14.16;87.48;100706.75;107238;1254;97879;-69
2022/10/16 06:38:37;;;;;;;22.50;14.80;;;;;;;14.17;87.54;100711.34;107116;1251;139247;-68
2022/10/16 06:41:03;;;;;;;27.30;15.50;;;;;;;14.17;87.48;100714.08;107328;1250;97739;-68
2022/10/16 06:43:31;;;;;;;24.30;15.80;;;;;;;14.16;87.48;100715.36;107274;1243;97576;-69
2022/10/16 06:45:58;;;;;;;24.00;15.40;;;;;;;14.16;87.58;100731.71;107165;1254;138315;-69
2022/10/16 06:48:24;;;;;;;21.50;14.50;;;;;;;14.18;87.64;100738.25;107309;1253;97721;-69
2022/10/16 06:50:59;;;;;;;25.00;16.30;;;;;;;14.19;87.70;100746.09;107165;1257;138583;-69
2022/10/16 06:53:27;;;;;;;21.40;15.60;;;;;;;14.26;87.86;100753.77;107246;1248;99799;-69
2022/10/16 06:55:52;;;;;;;21.90;16.20;;;;;;;14.36;87.83;100753.27;107212;1241;140037;-69
2022/10/16 06:58:18;;;;;;;21.50;15.40;;;;;;;14.42;87.91;100758.09;107297;1241;97718;-69
2022/10/16 07:00:43;;;;;;;23.60;16.30;;;;;;;14.49;87.95;100766.71;107408;1243;97942;-69
2022/10/16 07:03:08;;;;;;;25.70;15.30;;;;;;;14.54;87.95;100770.02;107172;1244;139912;-69
2022/10/16 07:05:40;;;;;;;22.30;13.90;;;;;;;14.59;87.90;100771.89;107322;1248;97793;-69
2022/10/16 07:08:06;;;;;;;19.20;13.00;;;;;;;14.64;87.98;100770.55;107175;1241;139851;-69
2022/10/16 07:10:32;;;;;;;20.20;14.70;;;;;;;14.67;88.03;100773.23;107278;1248;97573;-70
2022/10/16 07:12:57;;;;;;;19.60;14.70;;;;;;;14.73;87.99;100778.27;107382;1246;97676;-69
2022/10/16 07:15:24;;;;;;;24.20;14.90;;;;;;;14.78;88.05;100773.65;107160;1250;139666;-69
2022/10/16 07:17:49;;;;;;;23.20;14.70;;;;;;;14.82;87.95;100779.69;107353;1252;97850;-69
2022/10/16 07:20:14;;;;;;;21.40;14.40;;;;;;;14.85;88.12;100780.96;107281;1254;139608;-69
2022/10/16 07:22:40;;;;;;;19.20;14.10;;;;;;;14.88;88.06;100779.52;107302;1240;97656;-69
2022/10/16 07:25:06;;;;;;;22.80;14.60;;;;;;;14.94;88.16;100778.28;107330;1241;97835;-69
2022/10/16 07:27:31;;;;;;;20.90;14.30;;;;;;;15.01;88.13;100774.31;107367;1254;139398;-70
2022/10/16 07:29:56;;;;;;;19.10;14.60;;;;;;;15.05;88.10;100771.52;107323;1251;97684;-70
2022/10/16 07:32:22;;;;;;;18.50;13.40;;;;;;;15.09;88.11;100766.74;107256;1248;138989;-70
2022/10/16 07:34:47;;;;;;;20.40;13.70;;;;;;;15.12;88.01;100765.67;107319;1243;97581;-69
2022/10/16 07:37:12;;;;;;;23.60;12.90;;;;;;;15.16;88.00;100766.36;107291;1234;98809;-69
2022/10/16 07:39:37;;;;;;;20.70;13.30;;;;;;;15.19;88.05;100766.37;107305;1235;138547;-69
2022/10/16 07:42:02;;;;;;;17.40;12.40;;;;;;;15.21;88.05;100762.45;107339;1251;97898;-69
2022/10/16 07:44:27;;;;;;;19.10;12.10;;;;;;;15.25;87.96;100764.89;107326;1243;139130;-70
2022/10/16 07:46:53;;;;;;;19.70;12.00;;;;;;;15.31;88.02;100766.55;107337;1250;97609;-70
2022/10/16 07:49:18;;;;;;;15.90;11.20;;;;;;;15.33;87.93;100763.51;107365;1251;98079;-70
2022/10/16 07:51:44;;;;;;;17.40;11.80;;;;;;;15.36;87.79;100766.23;107111;1252;139668;-69
2022/10/16 07:54:10;;;;;;;26.00;12.20;;;;;;;15.38;87.77;100771.86;107179;1251;97710;-69
2022/10/16 07:56:35;;;;;;;16.10;11.30;;;;;;;15.38;87.62;100773.98;107205;1248;138657;-69
2022/10/16 07:59:00;;;;;;;20.20;12.20;;;;;;;15.39;87.69;100777.39;107366;1243;97634;-69
2022/10/16 08:01:26;;;;;;;19.30;12.70;;;;;;;15.37;87.66;100783.04;107385;1258;97610;-69
2022/10/16 08:03:51;;;;;;;20.20;12.00;;;;;;;15.35;87.50;100787.50;107120;1252;138944;-70
2022/10/16 08:06:19;;;;;;;16.60;11.70;;;;;;;15.35;87.65;100794.69;107161;1249;97917;-70
2022/10/16 08:08:44;;;;;;;19.90;12.40;;;;;;;15.39;87.64;100803.14;107171;1254;139764;-70
2022/10/16 08:11:09;;;;;;;16.00;11.90;;;;;;;15.41;87.50;100807.85;107413;1251;97638;-70
2022/10/16 08:13:35;;;;;;;19.40;12.30;;;;;;;15.42;87.56;100804.89;107361;1248;97735;-70
2022/10/16 08:16:01;;;;;;;19.00;12.20;;;;;;;15.48;87.63;100800.20;107239;1255;138413;-70
2022/10/16 08:18:26;;;;;;;22.10;12.00;;;;;;;15.57;87.51;100800.79;107312;1238;97870;-70
2022/10/16 08:20:57;;;;;;;17.80;11.60;;;;;;;15.66;87.61;100799.30;107261;1243;139647;-70
2022/10/16 08:23:22;;;;;;;22.10;12.90;;;;;;;15.73;87.52;100799.52;107358;1250;99330;-70
2022/10/16 08:25:48;;;;;;;17.20;12.00;;;;;;;15.80;87.48;100800.59;107230;1251;139583;-69
2022/10/16 08:28:13;;;;;;;17.50;12.30;;;;;;;15.87;87.38;100802.47;107410;1257;97423;-69
2022/10/16 08:30:38;;;;;;;22.70;13.20;;;;;;;15.93;87.41;100800.27;107336;1252;98036;-69
2022/10/16 08:33:04;;;;;;;21.30;12.90;;;;;;;15.99;87.24;100802.79;107172;1251;139886;-68
2022/10/16 08:35:29;;;;;;;16.60;11.70;;;;;;;16.05;87.27;100801.20;107221;1254;97717;-70
2022/10/16 08:37:55;;;;;;;17.70;12.50;;;;;;;16.07;87.21;100800.65;107089;1253;139186;-70
2022/10/16 08:40:25;;;;;;;15.40;11.70;;;;;;;16.09;87.13;100809.38;107258;1245;98544;-69
2022/10/16 08:43:01;;;;;;;20.20;13.60;;;;;;;16.08;87.00;100816.06;107140;1239;107024;-70
2022/10/16 08:45:55;;;;;;;15.80;10.70;;;;;;;16.10;87.06;100811.44;107028;1257;139089;-71
2022/10/16 08:48:43;;;;;;;19.30;10.60;;;;;;;16.13;87.09;100808.73;107150;1251;97657;-70
2022/10/16 08:51:18;;;;;;;18.00;11.70;;;;;;;16.18;86.96;100808.25;107015;1253;139594;-70
2022/10/16 08:53:56;;;;;;;16.70;11.00;;;;;;;16.26;86.92;100812.98;107122;1254;99334;-70
2022/10/16 08:56:23;;;;;;;11.20;8.80;;;;;;;16.36;86.98;100824.05;107045;1253;138725;-69
2022/10/16 08:58:49;;;;;;;14.60;9.70;;;;;;;16.45;86.96;100825.04;107159;1254;97689;-69
2022/10/16 09:01:18;;;;;;;11.40;8.80;;;;;;;16.55;86.68;100819.71;107103;1254;98205;-70
2022/10/16 09:03:54;;;;;;;13.20;9.50;;;;;;;16.66;86.79;100820.64;107204;1242;138544;-70
2022/10/16 09:06:31;;;;;;;12.60;8.80;;;;;;;16.79;86.82;100823.92;107380;1251;97579;-69
2022/10/16 09:09:30;;;;;;;10.60;8.10;;;;;;;16.97;86.73;100832.13;107218;1258;140765;-69
2022/10/16 09:12:00;;;;;;;16.20;9.10;;;;;;;17.10;86.59;100838.48;107326;1254;97863;-69
2022/10/16 09:14:59;;;;;;;12.90;8.20;;;;;;;17.17;86.55;100836.52;107222;1251;138599;-69
2022/10/16 09:17:50;;;;;;;12.00;8.20;;;;;;;17.25;86.14;100833.50;107306;1254;102442;-68
2022/10/16 09:20:32;;;;;;;;;;;;;;;17.30;86.06;100830.98;107238;1257;139434;-70
2022/10/16 09:23:30;;;;;;;10.80;6.50;;;;;;;17.33;85.03;100828.94;107409;1241;98082;-70
2022/10/16 09:25:58;;;;;;;13.00;7.20;;;;;;;17.38;85.68;100831.66;107096;1257;140050;-69
2022/10/16 09:28:24;;;;;;;9.10;6.80;;;;;;;17.44;85.46;100832.36;107365;1243;97720;-69
2022/10/16 09:30:50;;;;;;;9.60;6.80;;;;;;;17.50;85.45;100829.90;107353;1248;97807;-68
2022/10/16 09:33:19;;;;;;;8.80;6.50;;;;;;;17.56;85.26;100836.39;107284;1251;138330;-70
2022/10/16 09:35:48;;;;;;;9.90;6.90;;;;;;;17.59;85.15;100835.98;107355;1250;97683;-70
2022/10/16 09:38:32;;;;;;;9.20;6.70;;;;;;;17.60;84.15;100842.30;107193;1238;138246;-70
2022/10/16 09:40:59;;;;;;;9.10;6.90;;;;;;;17.58;84.47;100844.58;107206;1243;97690;-69
2022/10/16 09:43:39;;;;;;;12.90;7.00;;;;;;;17.61;84.54;100848.11;107173;1243;102425;-69
2022/10/16 09:46:21;;;;;;;9.50;6.90;;;;;;;17.71;84.56;100843.66;107069;1255;138634;-69
2022/10/16 09:48:51;;;;;;;8.50;7.10;;;;;;;17.80;84.22;100844.11;107173;1242;99805;-70
2022/10/16 09:51:30;;;;;;;9.60;6.40;;;;;;;17.88;83.90;100846.50;107264;1251;138198;-70
2022/10/16 09:54:07;;;;;;;16.60;7.30;;;;;;;17.99;84.02;100847.64;107374;1245;97893;-70
2022/10/16 09:56:39;;;;;;;9.10;7.00;;;;;;;18.10;84.00;100852.98;107251;1244;139378;-71
2022/10/16 09:59:14;;;;;;;9.30;6.80;;;;;;;18.19;83.69;100851.27;107263;1253;97836;-69
2022/10/16 10:01:46;;;;;;;11.10;6.10;;;;;;;18.25;83.55;100849.72;107203;1254;138316;-70
2022/10/16 10:04:12;;;;;;;8.60;6.40;;;;;;;18.36;83.46;100854.90;107348;1251;97614;-70
2022/10/16 10:06:43;;;;;;;8.20;6.40;;;;;;;18.46;83.39;100853.23;107376;1259;97710;-70
2022/10/16 10:09:30;;;;;;;9.40;6.50;;;;;;;18.55;83.01;100849.38;107131;1233;138178;-69
2022/10/16 10:12:01;;;;;;;11.10;5.40;;;;;;;18.63;82.77;100847.20;107267;1245;97698;-70
2022/10/16 10:14:42;;;;;;;;;;;;;;;18.70;82.91;100851.54;107007;1252;138494;-70
2022/10/16 10:17:16;;;;;;;9.50;5.70;;;;;;;18.78;82.52;100855.68;107179;1254;97248;-70
2022/10/16 10:19:47;;;;;;;7.80;5.60;;;;;;;18.86;82.33;100851.61;107088;1250;138925;-70
2022/10/16 10:22:22;;;;;;;9.10;6.10;;;;;;;18.97;82.38;100854.05;107370;1257;102039;-69
2022/10/16 10:25:18;;;;;;;15.90;6.50;;;;;;;19.08;82.10;100859.93;107381;1244;97844;-71
2022/10/16 10:28:08;;;;;;;11.00;5.80;;;;;;;19.18;81.84;100861.19;107081;1254;140202;-69
2022/10/16 10:30:48;;;;;;;8.50;6.50;;;;;;;19.23;81.70;100862.98;107198;1254;97869;-69
2022/10/16 10:33:28;;;;;;;9.90;6.10;;;;;;;19.26;81.07;100867.45;107013;1238;139012;-70
2022/10/16 10:36:04;;;;;;;6.60;5.10;;;;;;;19.24;80.77;100857.98;107272;1254;102335;-70
2022/10/16 10:38:38;;;;;;;6.30;5.00;;;;;;;19.29;80.89;100850.56;107136;1259;139560;-70
2022/10/16 10:41:34;;;;;;;10.60;6.20;;;;;;;19.38;80.73;100854.14;107270;1251;100507;-70
2022/10/16 10:44:08;;;;;;;8.90;6.40;;;;;;;19.50;80.60;100850.17;107170;1254;138182;-70
2022/10/16 10:47:18;;;;;;;7.50;6.20;;;;;;;19.64;80.41;100848.40;107195;1235;97674;-71
2022/10/16 10:50:06;;;;;;;8.30;6.20;;;;;;;19.72;79.99;100849.02;106980;1251;139561;-69
2022/10/16 10:52:50;;;;;;;9.20;5.50;;;;;;;19.82;79.90;100849.13;107331;1248;97765;-70
2022/10/16 10:55:43;;;;;;;9.60;5.30;;;;;;;19.93;79.69;100858.45;107303;1253;99913;-70
2022/10/16 10:58:22;;;;;;;9.50;5.20;;;;;;;19.96;78.53;100860.79;107329;1245;98928;-70
2022/10/16 11:01:11;;;;;;;5.40;4.70;;;;;;;19.93;78.81;100857.40;107326;1253;97789;-70
2022/10/16 11:04:11;;;;;;;6.90;5.30;;;;;;;19.87;78.66;100859.48;107213;1235;138819;-69
2022/10/16 11:07:00;;;;;;;12.00;5.40;;;;;;;19.79;78.38;100852.66;107292;1237;97717;-70
2022/10/16 11:09:31;;;;;;;6.50;4.80;;;;;;;19.73;78.30;100840.36;107167;1250;138926;-68
2022/10/16 11:12:09;;;;;;;5.50;4.90;;;;;;;19.70;77.95;100843.05;107326;1254;97745;-69
2022/10/16 11:14:40;;;;;;;6.50;5.00;;;;;;;19.67;78.19;100849.96;107177;1244;138606;-69